ハバロフスク の空港の天気 - METARとTAF

ハバロフスク空港 ( UHHH / KHV ) - ロシア ハバロフスク
飛行場実況気象(Metar)
観測時間01/23 18:00 VLAT (01/23 08:00 UTC)
風向・風速不定 1m/s
視程10km以上
天気現象
なし
気温-25℃
湿度47%
気圧1016hPa
METARUHHH 230800Z VRB01MPS CAVOK M25/M33 Q1016 R23L/090060 NOSIG RMK QFE756/1008
過去の天気等 Google飛行場航空写真 Wunderground天気予報

過去48時間のMETAR

飛行場予報(TAF)
発表時間: 1/23 14:57 VLAT (1/23 04:57 UTC)
予報対象時間: 23日16時 VLAT ~ 24日22時 VLAT
風向・風速不定 1m/s
視程10km以上
なし
23日22時 VLAT から
風向・風速北北西 3m/s
視程10km以上
全天の4割程度の雲 雲底高度 610m
24日4時 VLAT から
風向・風速北北西 6m/s
視程5,000m
天気現象弱い雪
全天の8割程度の雲 雲底高度 610m
24日6時 VLAT ~ 24日16時 VLAT に一時的に
風向・風速北北東 7m/s 瞬間風速 12m/s
視程2,000m
天気現象雪 高い地吹雪
TAF UHHH 230457Z 2306/2412 VRB01MPS CAVOK
FM231200 34003MPS 9999 SCT020
FM231800 34006MPS 5000 -SN BKN020
TEMPO 2320/2406 02007G12MPS 2000 SN BLSN